Time;durP1;ratioP1;P1;durP2;ratioP2;P2;SDS_P1;SDS_P2;PMS_P1;PMS_P2;Temp;Humidity;BMP_temperature;BMP_pressure;BME280_temperature;BME280_humidity;BME280_pressure;Samples;Min_cycle;Max_cycle;Signal;HPM_P1;HPM_P2
2023/11/20 00:00:26;;;;;;;7.50;3.90;;;;;;;6.81;100.00;95847.89;107149;1270;140535;-88
2023/11/20 00:03:12;;;;;;;7.00;3.30;;;;;;;6.82;100.00;95844.09;107325;1274;22532;-87
2023/11/20 00:05:39;;;;;;;7.70;3.10;;;;;;;6.81;100.00;95845.67;107372;1272;22551;-87
2023/11/20 00:08:05;;;;;;;8.80;3.30;;;;;;;6.80;100.00;95841.13;107238;1269;137841;-87
2023/11/20 00:10:34;;;;;;;6.10;3.40;;;;;;;6.79;100.00;95843.45;107303;1272;25434;-87
2023/11/20 00:13:00;;;;;;;5.90;3.20;;;;;;;6.80;100.00;95843.54;107231;1272;138877;-87
2023/11/20 00:15:27;;;;;;;7.70;3.20;;;;;;;6.82;100.00;95850.06;107397;1274;25370;-87
2023/11/20 00:17:53;;;;;;;4.60;3.00;;;;;;;6.81;100.00;95845.90;107252;1273;138192;-87
2023/11/20 00:20:19;;;;;;;6.10;3.00;;;;;;;6.82;100.00;95837.52;107367;1270;24944;-87
2023/11/20 00:22:46;;;;;;;6.80;3.10;;;;;;;6.83;100.00;95834.66;107406;1275;22711;-87
2023/11/20 00:25:12;;;;;;;5.00;3.10;;;;;;;6.85;100.00;95839.89;108942;1266;138475;-87
2023/11/20 00:27:39;;;;;;;8.10;3.30;;;;;;;6.88;100.00;95846.33;110247;1272;22280;-88
2023/11/20 00:30:06;;;;;;;5.00;3.00;;;;;;;6.90;100.00;95841.55;110135;1278;138339;-87
2023/11/20 00:32:31;;;;;;;8.60;4.50;;;;;;;6.92;100.00;95847.90;110095;1276;23011;-88
2023/11/20 00:34:57;;;;;;;7.80;3.60;;;;;;;6.92;100.00;95848.58;110091;1271;22245;-88
2023/11/20 00:37:23;;;;;;;6.10;3.20;;;;;;;6.93;100.00;95845.21;110107;1272;138807;-87
2023/11/20 00:39:49;;;;;;;4.80;2.70;;;;;;;6.96;100.00;95842.19;110279;1278;22417;-87
2023/11/20 00:42:16;;;;;;;6.90;3.10;;;;;;;6.98;100.00;95842.46;110152;1270;138947;-87
2023/11/20 00:44:42;;;;;;;40.20;18.40;;;;;;;6.98;100.00;95844.50;110101;1278;23039;-88
2023/11/20 00:47:07;;;;;;;11.80;6.00;;;;;;;6.98;100.00;95844.94;110244;1278;22338;-88
2023/11/20 00:49:33;;;;;;;7.60;3.80;;;;;;;7.00;100.00;95848.89;110141;1274;138210;-88
2023/11/20 00:52:01;;;;;;;8.50;3.10;;;;;;;7.01;100.00;95847.46;107606;1272;22553;-86
2023/11/20 00:54:27;;;;;;;4.90;2.90;;;;;;;7.01;100.00;95848.50;107026;1272;138673;-87
2023/11/20 00:56:53;;;;;;;7.20;2.90;;;;;;;7.01;100.00;95846.24;107122;1272;24231;-86
2023/11/20 00:59:19;;;;;;;5.70;2.70;;;;;;;7.01;100.00;95847.34;107066;1272;23333;-86
2023/11/20 01:01:45;;;;;;;6.10;2.70;;;;;;;7.00;100.00;95847.50;107201;1271;138088;-86
2023/11/20 01:04:11;;;;;;;6.60;2.60;;;;;;;6.99;100.00;95849.86;107272;1272;22604;-87
2023/11/20 01:06:40;;;;;;;4.90;2.40;;;;;;;6.99;100.00;95845.91;107152;1270;138880;-86
2023/11/20 01:09:06;;;;;;;5.40;2.30;;;;;;;7.00;100.00;95842.44;107330;1272;25404;-87
2023/11/20 01:11:34;;;;;;;6.50;3.00;;;;;;;7.01;100.00;95849.21;107333;1271;22589;-87
2023/11/20 01:14:01;;;;;;;5.60;2.80;;;;;;;7.01;100.00;95850.34;107130;1272;137984;-87
2023/11/20 01:16:28;;;;;;;5.70;3.40;;;;;;;7.01;100.00;95842.95;107274;1270;25377;-87
2023/11/20 01:18:55;;;;;;;8.60;2.80;;;;;;;7.01;100.00;95844.48;107032;1272;138858;-86
2023/11/20 01:21:21;;;;;;;5.90;3.00;;;;;;;7.02;100.00;95844.23;107246;1271;22559;-86
2023/11/20 01:23:47;;;;;;;4.90;2.40;;;;;;;7.02;100.00;95848.39;107157;1272;138203;-87
2023/11/20 01:26:14;;;;;;;5.90;3.00;;;;;;;7.02;100.00;95848.59;107174;1272;22593;-86
2023/11/20 01:28:40;;;;;;;5.50;2.60;;;;;;;7.02;100.00;95851.85;107271;1275;24199;-86
2023/11/20 01:31:06;;;;;;;5.20;2.40;;;;;;;7.02;100.00;95852.17;107223;1272;138502;-87
2023/11/20 01:33:32;;;;;;;3.90;2.30;;;;;;;7.01;100.00;95848.14;107134;1272;24358;-86
2023/11/20 01:35:58;;;;;;;8.20;4.50;;;;;;;7.00;100.00;95848.08;107339;1272;139208;-87
2023/11/20 01:38:24;;;;;;;5.40;2.70;;;;;;;6.98;100.00;95847.76;109369;1270;22667;-87
2023/11/20 01:40:54;;;;;;;4.70;2.90;;;;;;;6.98;100.00;95850.14;107375;1270;22527;-87
2023/11/20 01:43:20;;;;;;;6.30;2.90;;;;;;;6.99;100.00;95851.27;107159;1272;138173;-87
2023/11/20 01:45:47;;;;;;;5.20;2.40;;;;;;;6.99;100.00;95849.50;107439;1262;22664;-87
2023/11/20 01:48:14;;;;;;;5.50;2.70;;;;;;;7.00;100.00;95847.77;107280;1272;138357;-87
2023/11/20 01:50:40;;;;;;;4.00;2.30;;;;;;;6.99;100.00;95849.90;107166;1272;22537;-87
2023/11/20 01:53:06;;;;;;;5.60;2.50;;;;;;;6.99;100.00;95851.09;107196;1272;22761;-87
2023/11/20 01:55:32;;;;;;;5.90;2.20;;;;;;;6.98;100.00;95852.73;107298;1271;138206;-87
2023/11/20 01:57:58;;;;;;;5.40;2.30;;;;;;;6.98;100.00;95851.56;107315;1272;25265;-87
2023/11/20 02:00:24;;;;;;;3.40;2.00;;;;;;;6.96;100.00;95852.41;107036;1272;139100;-87
2023/11/20 02:02:50;;;;;;;4.30;2.90;;;;;;;6.97;100.00;95851.70;107137;1271;22671;-86
2023/11/20 02:05:16;;;;;;;4.70;2.20;;;;;;;6.96;100.00;95849.19;107282;1272;25410;-87
2023/11/20 02:07:42;;;;;;;5.10;2.30;;;;;;;6.96;100.00;95841.84;107161;1272;137972;-86
2023/11/20 02:10:08;;;;;;;7.60;4.00;;;;;;;6.96;100.00;95834.08;107397;1270;24307;-86
2023/11/20 02:12:36;;;;;;;6.00;2.90;;;;;;;6.96;100.00;95834.25;107331;1272;139073;-86
2023/11/20 02:15:03;;;;;;;5.40;2.20;;;;;;;6.96;100.00;95835.27;107203;1272;22550;-87
2023/11/20 02:17:29;;;;;;;8.30;2.80;;;;;;;6.95;100.00;95832.48;107230;1269;22655;-87
2023/11/20 02:19:55;;;;;;;5.20;2.50;;;;;;;6.95;100.00;95832.21;107239;1256;137960;-87
2023/11/20 02:22:21;;;;;;;5.70;2.40;;;;;;;6.95;100.00;95827.67;107369;1272;22571;-86
2023/11/20 02:24:47;;;;;;;5.50;2.40;;;;;;;6.95;100.00;95825.60;107186;1273;138445;-87
2023/11/20 02:27:29;;;;;;;4.60;2.20;;;;;;;6.96;100.00;95822.84;107228;1271;22545;-86
2023/11/20 02:29:55;;;;;;;6.50;2.90;;;;;;;6.98;100.00;95812.46;107273;1270;138750;-87
2023/11/20 02:32:21;;;;;;;4.70;2.70;;;;;;;6.99;100.00;95808.42;107094;1272;25483;-87
2023/11/20 02:34:50;;;;;;;4.60;2.20;;;;;;;7.01;100.00;95808.17;107264;1270;22568;-87
2023/11/20 02:37:16;;;;;;;5.90;2.40;;;;;;;7.03;100.00;95803.80;107683;1272;138260;-86
2023/11/20 02:39:42;;;;;;;5.30;2.60;;;;;;;7.06;100.00;95806.39;107410;1272;25399;-87
2023/11/20 02:42:08;;;;;;;5.60;2.40;;;;;;;7.07;100.00;95805.37;107215;1272;138216;-87
2023/11/20 02:44:37;;;;;;;4.30;2.80;;;;;;;7.10;100.00;95804.09;107361;1270;25201;-86
2023/11/20 02:47:06;;;;;;;5.30;3.20;;;;;;;7.11;100.00;95803.23;107211;1272;23037;-87
2023/11/20 02:49:35;;;;;;;5.90;2.60;;;;;;;7.11;100.00;95802.72;107196;1275;138037;-87
2023/11/20 02:52:05;;;;;;;8.60;4.30;;;;;;;7.11;100.00;95801.68;110241;1272;22980;-87
2023/11/20 02:54:32;;;;;;;5.80;3.60;;;;;;;7.12;100.00;95808.45;110014;1278;138835;-87
2023/11/20 02:57:03;;;;;;;6.50;2.80;;;;;;;7.13;100.00;95809.30;108739;1275;22531;-86
2023/11/20 02:59:29;;;;;;;3.80;2.30;;;;;;;7.14;100.00;95807.17;107247;1272;23272;-89
2023/11/20 03:01:55;;;;;;;10.00;5.90;;;;;;;7.14;100.00;95808.68;106921;1272;138046;-86
2023/11/20 03:04:21;;;;;;;8.40;5.40;;;;;;;7.15;100.00;95808.79;107194;1256;25438;-87
2023/11/20 03:06:47;;;;;;;7.30;4.40;;;;;;;7.16;100.00;95811.47;107132;1270;138144;-87
2023/11/20 03:09:13;;;;;;;5.70;2.80;;;;;;;7.17;100.00;95811.30;107255;1270;23919;-87
2023/11/20 03:11:39;;;;;;;6.60;2.40;;;;;;;7.18;100.00;95812.14;107306;1272;22541;-87
2023/11/20 03:14:06;;;;;;;6.50;3.10;;;;;;;7.18;100.00;95813.14;107023;1272;139520;-87
2023/11/20 03:16:32;;;;;;;3.50;2.40;;;;;;;7.18;100.00;95813.27;107275;1272;24094;-87
2023/11/20 03:18:58;;;;;;;5.20;2.20;;;;;;;7.18;100.00;95809.36;108515;1273;138694;-87
2023/11/20 03:21:26;;;;;;;3.90;1.90;;;;;;;7.18;100.00;95811.91;110244;1271;22782;-87
2023/11/20 03:23:52;;;;;;;5.40;2.50;;;;;;;7.18;100.00;95809.81;110154;1272;138783;-88
2023/11/20 03:26:24;;;;;;;7.50;2.70;;;;;;;7.19;100.00;95808.70;107254;1272;22696;-87
2023/11/20 03:28:50;;;;;;;5.50;2.70;;;;;;;7.20;100.00;95804.94;107287;1275;22712;-87
2023/11/20 03:31:16;;;;;;;5.20;2.40;;;;;;;7.21;100.00;95801.05;108835;1272;138599;-87
2023/11/20 03:33:42;;;;;;;4.70;2.10;;;;;;;7.21;100.00;95798.40;110241;1272;22347;-88
2023/11/20 03:36:09;;;;;;;5.80;2.70;;;;;;;7.23;100.00;95794.48;110145;1277;138993;-88
2023/11/20 03:38:35;;;;;;;4.80;2.20;;;;;;;7.25;100.00;95794.27;110162;1272;22285;-88
2023/11/20 03:41:02;;;;;;;4.70;2.40;;;;;;;7.26;100.00;95796.84;110126;1271;23656;-87
2023/11/20 03:43:28;;;;;;;4.90;3.20;;;;;;;7.28;100.00;95793.08;109990;1270;137968;-87
2023/11/20 03:45:55;;;;;;;5.90;2.70;;;;;;;7.29;100.00;95789.84;110220;1266;192381;-88
2023/11/20 03:48:21;;;;;;;5.60;2.60;;;;;;;7.30;100.00;95790.44;107660;1270;138998;-87
2023/11/20 03:50:47;;;;;;;5.80;2.50;;;;;;;7.30;100.00;95795.34;107334;1275;23323;-87
2023/11/20 03:53:14;;;;;;;5.50;2.00;;;;;;;7.31;100.00;95789.03;107349;1269;22591;-88
2023/11/20 03:55:40;;;;;;;3.90;2.30;;;;;;;7.32;100.00;95787.93;107235;1269;137965;-87
2023/11/20 03:58:06;;;;;;;4.60;2.40;;;;;;;7.31;100.00;95794.40;107416;1271;22524;-87
2023/11/20 04:00:32;;;;;;;6.30;3.10;;;;;;;7.31;100.00;95792.72;107334;1272;137942;-88
2023/11/20 04:02:59;;;;;;;5.60;2.70;;;;;;;7.29;100.00;95784.11;107224;1272;24291;-87
2023/11/20 04:05:25;;;;;;;4.90;2.70;;;;;;;7.27;100.00;95779.33;107279;1272;25395;-88
2023/11/20 04:07:51;;;;;;;5.50;2.50;;;;;;;7.25;100.00;95786.64;107027;1270;138349;-87
2023/11/20 04:10:18;;;;;;;4.90;2.40;;;;;;;7.24;100.00;95783.17;107125;1273;22540;-87
2023/11/20 04:12:45;;;;;;;5.10;2.10;;;;;;;7.21;100.00;95778.95;107186;1270;137936;-87
2023/11/20 04:15:11;;;;;;;5.30;2.90;;;;;;;7.19;100.00;95773.40;107250;1270;22545;-87
2023/11/20 04:17:38;;;;;;;4.30;2.80;;;;;;;7.16;100.00;95776.94;107308;1267;23341;-88
2023/11/20 04:20:05;;;;;;;7.50;3.80;;;;;;;7.14;100.00;95772.88;107284;1269;138288;-86
2023/11/20 04:22:32;;;;;;;5.50;2.70;;;;;;;7.13;100.00;95773.89;107082;1273;22539;-88
2023/11/20 04:24:59;;;;;;;7.20;3.00;;;;;;;7.11;100.00;95769.84;110160;1272;139207;-87
2023/11/20 04:27:25;;;;;;;6.40;3.00;;;;;;;7.10;100.00;95769.72;109466;1272;22541;-87
2023/11/20 04:29:51;;;;;;;8.70;3.30;;;;;;;7.10;100.00;95766.14;107163;1275;138157;-87
2023/11/20 04:32:17;;;;;;;5.50;3.00;;;;;;;7.10;100.00;95768.27;107247;1272;22537;-87
2023/11/20 04:34:44;;;;;;;7.40;3.20;;;;;;;7.10;100.00;95767.85;107275;1272;22531;-88
2023/11/20 04:37:10;;;;;;;4.70;2.70;;;;;;;7.08;100.00;95762.73;110112;1273;138161;-88
2023/11/20 04:39:36;;;;;;;4.90;2.70;;;;;;;7.08;100.00;95763.48;110240;1275;22222;-88
2023/11/20 04:42:03;;;;;;;6.20;3.00;;;;;;;7.08;100.00;95765.52;110196;1273;138325;-89
2023/11/20 04:44:29;;;;;;;5.70;3.40;;;;;;;7.09;100.00;95769.83;110194;1273;22207;-88
2023/11/20 04:46:56;;;;;;;7.00;2.90;;;;;;;7.10;100.00;95771.79;110265;1273;23021;-88
2023/11/20 04:49:22;;;;;;;7.70;2.90;;;;;;;7.11;100.00;95773.03;110139;1273;138016;-87
2023/11/20 04:51:48;;;;;;;7.90;3.20;;;;;;;7.11;100.00;95772.11;110280;1271;22325;-88
2023/11/20 04:54:14;;;;;;;8.50;3.30;;;;;;;7.11;100.00;95769.13;110081;1278;138541;-88
2023/11/20 04:56:40;;;;;;;4.90;2.80;;;;;;;7.11;100.00;95770.67;107600;1272;22625;-88
2023/11/20 04:59:07;;;;;;;5.60;3.10;;;;;;;7.12;100.00;95767.80;107205;1270;22591;-87
2023/11/20 05:01:33;;;;;;;5.80;2.90;;;;;;;7.12;100.00;95761.04;107012;1270;138714;-87
2023/11/20 05:03:59;;;;;;;6.50;3.50;;;;;;;7.12;100.00;95755.74;107192;1272;24368;-87
2023/11/20 05:06:25;;;;;;;3.10;2.30;;;;;;;7.12;100.00;95760.40;107121;1270;139829;-88
2023/11/20 05:08:51;;;;;;;4.40;2.40;;;;;;;7.11;100.00;95760.98;107268;1272;22543;-87
2023/11/20 05:11:18;;;;;;;5.50;2.80;;;;;;;7.10;100.00;95761.10;107243;1272;23886;-87
2023/11/20 05:13:44;;;;;;;4.90;2.70;;;;;;;7.10;100.00;95751.34;107073;1273;139032;-87
2023/11/20 05:16:11;;;;;;;5.50;3.10;;;;;;;7.08;100.00;95758.60;107218;1272;22537;-87
2023/11/20 05:18:37;;;;;;;3.50;3.20;;;;;;;7.06;100.00;95755.55;106999;1272;138520;-87
2023/11/20 05:21:03;;;;;;;2.70;1.90;;;;;;;7.05;100.00;95755.70;107267;1273;22639;-88
2023/11/20 05:23:29;;;;;;;3.90;2.50;;;;;;;7.04;100.00;95757.86;107181;1272;22690;-87
2023/11/20 05:25:55;;;;;;;5.40;2.70;;;;;;;7.03;100.00;95754.87;107123;1272;138047;-87
2023/11/20 05:28:22;;;;;;;6.10;2.40;;;;;;;7.03;100.00;95755.98;107218;1256;22548;-87
2023/11/20 05:30:48;;;;;;;5.70;2.30;;;;;;;7.02;100.00;95754.53;107058;1272;137989;-87
2023/11/20 05:33:14;;;;;;;4.80;2.50;;;;;;;7.02;100.00;95758.86;107114;1275;24333;-87
2023/11/20 05:35:40;;;;;;;4.10;2.20;;;;;;;7.00;100.00;95760.94;107280;1278;22537;-87
2023/11/20 05:38:06;;;;;;;4.10;2.20;;;;;;;6.99;100.00;95764.13;107026;1272;138318;-87
2023/11/20 05:40:33;;;;;;;7.10;2.60;;;;;;;6.99;100.00;95760.73;107285;1271;22597;-88
2023/11/20 05:42:59;;;;;;;4.90;2.70;;;;;;;6.99;100.00;95755.73;107144;1272;138612;-86
2023/11/20 05:45:25;;;;;;;5.70;3.40;;;;;;;6.99;100.00;95756.71;107254;1272;22535;-86
2023/11/20 05:47:51;;;;;;;37.60;11.20;;;;;;;7.00;100.00;95753.71;107080;1272;138824;-87
2023/11/20 05:50:16;;;;;;;74.50;22.40;;;;;;;7.00;100.00;95749.58;107275;1272;24210;-87
2023/11/20 05:52:42;;;;;;;101.20;32.60;;;;;;;7.00;100.00;95752.68;107201;1272;25346;-87
2023/11/20 05:55:08;;;;;;;399.60;138.90;;;;;;;7.00;100.00;95752.86;107149;1275;138647;-86
2023/11/20 05:57:34;;;;;;;220.90;77.30;;;;;;;6.99;100.00;95756.19;107237;1270;22531;-88
2023/11/20 06:00:01;;;;;;;141.50;48.80;;;;;;;6.99;100.00;95753.86;107149;1271;138811;-87
2023/11/20 06:02:27;;;;;;;76.10;25.10;;;;;;;6.98;100.00;95757.73;107247;1272;22805;-87
2023/11/20 06:04:53;;;;;;;43.60;17.50;;;;;;;6.97;100.00;95756.23;107222;1270;22590;-87
2023/11/20 06:07:19;;;;;;;106.40;43.00;;;;;;;6.97;100.00;95757.73;107078;1272;138363;-87
2023/11/20 06:09:45;;;;;;;167.80;62.50;;;;;;;6.97;100.00;95761.46;107126;1272;24022;-87
2023/11/20 06:12:13;;;;;;;188.80;55.20;;;;;;;6.97;100.00;95758.33;107137;1272;140075;-88
2023/11/20 06:14:41;;;;;;;107.70;31.70;;;;;;;6.97;100.00;95758.84;107256;1272;22536;-88
2023/11/20 06:17:07;;;;;;;54.10;18.00;;;;;;;6.98;100.00;95757.48;107101;1272;22575;-88
2023/11/20 06:19:33;;;;;;;58.50;19.40;;;;;;;6.98;100.00;95753.29;109228;1259;139019;-87
2023/11/20 06:21:59;;;;;;;164.40;60.60;;;;;;;6.97;100.00;95755.39;110138;1275;22477;-87
2023/11/20 06:24:25;;;;;;;131.10;39.40;;;;;;;6.98;100.00;95755.45;108193;1275;138763;-87
2023/11/20 06:26:51;;;;;;;69.70;21.20;;;;;;;6.98;100.00;95760.14;107178;1273;22661;-87
2023/11/20 06:29:17;;;;;;;71.00;20.40;;;;;;;6.99;100.00;95758.05;107197;1272;25221;-87
2023/11/20 06:31:43;;;;;;;18.60;7.70;;;;;;;7.00;100.00;95759.40;107068;1275;138385;-87
2023/11/20 06:34:09;;;;;;;33.80;11.90;;;;;;;7.00;100.00;95760.79;107217;1259;22593;-87
2023/11/20 06:36:36;;;;;;;37.00;12.70;;;;;;;7.00;100.00;95760.23;107153;1275;138456;-87
2023/11/20 06:39:05;;;;;;;12.70;5.30;;;;;;;7.01;100.00;95757.94;107229;1275;22538;-87
2023/11/20 06:41:31;;;;;;;159.50;53.30;;;;;;;7.02;100.00;95760.73;107348;1271;22552;-88
2023/11/20 06:43:57;;;;;;;102.20;30.50;;;;;;;7.03;100.00;95761.63;107170;1271;139356;-87
2023/11/20 06:46:25;;;;;;;62.50;19.70;;;;;;;7.04;100.00;95765.10;107079;1274;25398;-87
2023/11/20 06:48:51;;;;;;;51.70;19.50;;;;;;;7.04;100.00;95768.23;107124;1275;138312;-87
2023/11/20 06:51:17;;;;;;;52.60;19.20;;;;;;;7.05;100.00;95768.80;107054;1273;23233;-87
2023/11/20 06:53:43;;;;;;;30.30;12.50;;;;;;;7.05;100.00;95765.64;107281;1273;22827;-87
2023/11/20 06:56:16;;;;;;;91.50;35.00;;;;;;;7.05;100.00;95766.83;107075;1269;138196;-87
2023/11/20 06:58:42;;;;;;;41.10;17.10;;;;;;;7.06;100.00;95767.27;107211;1275;24618;-87
2023/11/20 07:01:08;;;;;;;24.20;11.10;;;;;;;7.07;100.00;95771.70;107183;1272;138402;-87
2023/11/20 07:03:35;;;;;;;16.20;8.30;;;;;;;7.07;100.00;95772.92;107179;1275;22544;-87
2023/11/20 07:06:02;;;;;;;10.50;5.00;;;;;;;7.06;100.00;95774.38;107259;1273;138976;-86
2023/11/20 07:08:28;;;;;;;26.50;12.80;;;;;;;7.05;100.00;95772.97;110032;1278;22335;-87
2023/11/20 07:10:56;;;;;;;14.40;6.60;;;;;;;7.04;100.00;95775.92;107219;1273;22632;-86
2023/11/20 07:13:23;;;;;;;12.00;7.70;;;;;;;7.05;100.00;95779.10;107178;1263;138166;-87
2023/11/20 07:15:48;;;;;;;12.20;7.20;;;;;;;7.06;100.00;95783.36;107147;1273;25023;-87
2023/11/20 07:18:15;;;;;;;6.80;3.50;;;;;;;7.06;100.00;95782.17;107165;1275;138479;-86
2023/11/20 07:20:42;;;;;;;11.60;5.80;;;;;;;7.04;100.00;95790.05;107258;1272;25328;-86
2023/11/20 07:23:08;;;;;;;8.70;5.00;;;;;;;7.03;100.00;95789.17;107145;1275;23284;-87
2023/11/20 07:25:34;;;;;;;10.80;6.30;;;;;;;7.03;100.00;95787.23;107069;1272;138611;-87
2023/11/20 07:28:01;;;;;;;12.10;4.90;;;;;;;7.04;100.00;95785.48;107224;1272;22634;-87
2023/11/20 07:30:28;;;;;;;16.00;7.80;;;;;;;7.05;100.00;95786.70;107746;1273;138436;-87
2023/11/20 07:32:55;;;;;;;23.10;11.60;;;;;;;7.06;100.00;95785.72;110181;1278;23047;-87
2023/11/20 07:35:22;;;;;;;33.20;15.70;;;;;;;7.08;100.00;95787.02;110217;1278;22407;-88
2023/11/20 07:37:47;;;;;;;28.90;13.40;;;;;;;7.09;100.00;95784.69;107995;1265;138924;-86
2023/11/20 07:40:15;;;;;;;21.00;9.20;;;;;;;7.11;100.00;95787.25;107228;1273;22536;-87
2023/11/20 07:42:41;;;;;;;8.70;4.60;;;;;;;7.12;100.00;95789.17;107104;1272;138375;-87
2023/11/20 07:45:08;;;;;;;12.80;5.90;;;;;;;7.11;100.00;95781.69;107080;1272;22662;-87
2023/11/20 07:47:34;;;;;;;15.20;8.30;;;;;;;7.12;100.00;95783.17;107175;1272;22603;-87
2023/11/20 07:50:00;;;;;;;9.30;3.80;;;;;;;7.13;100.00;95779.92;107026;1272;138834;-87
2023/11/20 07:52:26;;;;;;;9.40;4.80;;;;;;;7.13;100.00;95776.34;107134;1272;22646;-86
2023/11/20 07:54:52;;;;;;;34.00;17.70;;;;;;;7.13;100.00;95779.73;107145;1272;138018;-87
2023/11/20 07:57:22;;;;;;;16.80;9.90;;;;;;;7.14;100.00;95780.69;107198;1273;23289;-88
2023/11/20 07:59:50;;;;;;;16.30;8.90;;;;;;;7.14;100.00;95779.83;107107;1272;138369;-87
2023/11/20 08:02:19;;;;;;;10.00;6.10;;;;;;;7.13;100.00;95783.47;107363;1272;23298;-88
2023/11/20 08:04:46;;;;;;;16.20;8.30;;;;;;;7.13;100.00;95777.67;107305;1272;22553;-87
2023/11/20 08:07:13;;;;;;;9.90;5.30;;;;;;;7.13;100.00;95780.41;107217;1273;138900;-88
2023/11/20 08:09:39;;;;;;;28.40;13.10;;;;;;;7.13;100.00;95779.41;107217;1277;22540;-87
2023/11/20 08:12:06;;;;;;;20.40;10.60;;;;;;;7.14;100.00;95777.84;107217;1275;139610;-88
2023/11/20 08:14:33;;;;;;;18.00;9.30;;;;;;;7.15;100.00;95781.02;107171;1270;22579;-88
2023/11/20 08:16:59;;;;;;;22.00;11.40;;;;;;;7.17;100.00;95781.05;107117;1276;24446;-87
2023/11/20 08:19:26;;;;;;;25.10;14.30;;;;;;;7.18;100.00;95775.05;107099;1272;139277;-87
2023/11/20 08:21:52;;;;;;;15.20;9.20;;;;;;;7.19;100.00;95775.46;107271;1275;23288;-87
2023/11/20 08:24:18;;;;;;;20.00;12.30;;;;;;;7.20;100.00;95766.31;107247;1272;138676;-87
2023/11/20 08:26:44;;;;;;;27.10;13.60;;;;;;;7.22;100.00;95766.13;107153;1273;22558;-88
2023/11/20 08:29:11;;;;;;;8.40;5.50;;;;;;;7.22;100.00;95764.54;107216;1273;22580;-87
2023/11/20 08:31:37;;;;;;;11.20;6.30;;;;;;;7.23;100.00;95765.66;107060;1272;138593;-87
2023/11/20 08:34:07;;;;;;;7.60;4.20;;;;;;;7.24;100.00;95762.11;107113;1272;22579;-87
2023/11/20 08:36:33;;;;;;;6.40;4.90;;;;;;;7.26;100.00;95766.73;106967;1268;138104;-87
2023/11/20 08:38:59;;;;;;;6.40;4.10;;;;;;;7.28;100.00;95770.14;107262;1272;24793;-88
2023/11/20 08:41:25;;;;;;;7.30;4.50;;;;;;;7.30;100.00;95772.00;107141;1276;22534;-88
2023/11/20 08:43:51;;;;;;;7.10;4.60;;;;;;;7.30;100.00;95772.08;106977;1272;138934;-87
2023/11/20 08:46:16;;;;;;;7.20;4.10;;;;;;;7.31;100.00;95769.98;107184;1275;22571;-87
2023/11/20 08:48:42;;;;;;;8.50;5.20;;;;;;;7.30;100.00;95770.37;107373;1273;138073;-88
2023/11/20 08:51:08;;;;;;;6.40;4.20;;;;;;;7.31;100.00;95769.79;107294;1278;22533;-87
2023/11/20 08:53:35;;;;;;;8.60;5.50;;;;;;;7.31;100.00;95768.20;107279;1270;25419;-88
2023/11/20 08:56:02;;;;;;;7.80;5.90;;;;;;;7.32;100.00;95771.04;108379;1276;138506;-87
2023/11/20 08:58:28;;;;;;;6.20;3.70;;;;;;;7.33;100.00;95775.46;107366;1275;24347;-88
2023/11/20 09:00:54;;;;;;;6.40;3.80;;;;;;;7.33;100.00;95771.23;107072;1273;139114;-88
2023/11/20 09:03:20;;;;;;;5.30;3.60;;;;;;;7.34;100.00;95771.72;107311;1275;25283;-87
2023/11/20 09:05:47;;;;;;;4.50;3.20;;;;;;;7.34;100.00;95768.42;107142;1270;138181;-87
2023/11/20 09:08:13;;;;;;;6.50;4.90;;;;;;;7.35;100.00;95769.20;107222;1275;22532;-87
2023/11/20 09:10:40;;;;;;;18.00;13.30;;;;;;;7.36;100.00;95767.85;107399;1275;22537;-87
2023/11/20 09:13:06;;;;;;;13.40;6.90;;;;;;;7.37;100.00;95763.92;107363;1270;138442;-88
2023/11/20 09:15:32;;;;;;;15.20;7.90;;;;;;;7.37;100.00;95762.51;107425;1273;22560;-87
2023/11/20 09:17:59;;;;;;;15.80;8.40;;;;;;;7.39;100.00;95768.97;107302;1266;138821;-87
2023/11/20 09:20:25;;;;;;;9.60;6.00;;;;;;;7.40;100.00;95763.73;107366;1275;26548;-87
2023/11/20 09:22:51;;;;;;;8.90;5.90;;;;;;;7.38;100.00;95761.84;107253;1270;23122;-87
2023/11/20 09:25:17;;;;;;;7.00;3.60;;;;;;;7.39;100.00;95763.04;107129;1275;139033;-88
2023/11/20 09:27:43;;;;;;;7.60;4.90;;;;;;;7.40;100.00;95763.38;107316;1273;22538;-87
2023/11/20 09:30:10;;;;;;;9.20;5.10;;;;;;;7.41;100.00;95761.95;107338;1277;138141;-87
2023/11/20 09:32:36;;;;;;;6.00;3.50;;;;;;;7.39;100.00;95762.45;107368;1270;22577;-88
2023/11/20 09:35:02;;;;;;;11.50;6.80;;;;;;;7.39;100.00;95760.77;107414;1270;22538;-88
2023/11/20 09:37:28;;;;;;;6.20;3.50;;;;;;;7.37;100.00;95759.59;107052;1273;138962;-88
2023/11/20 09:39:54;;;;;;;5.40;2.90;;;;;;;7.35;100.00;95755.55;107207;1275;23292;-87
2023/11/20 09:42:23;;;;;;;7.30;4.50;;;;;;;7.33;100.00;95755.77;107179;1273;138166;-87
2023/11/20 09:44:49;;;;;;;5.90;3.60;;;;;;;7.32;100.00;95756.02;109033;1273;24906;-88
2023/11/20 09:47:16;;;;;;;6.40;3.80;;;;;;;7.33;100.00;95754.38;107078;1256;24251;-88
2023/11/20 09:49:42;;;;;;;5.20;3.00;;;;;;;7.35;100.00;95751.30;107243;1273;138250;-86
2023/11/20 09:52:09;;;;;;;4.70;3.60;;;;;;;7.36;100.00;95749.60;107252;1275;22578;-87
2023/11/20 09:54:41;;;;;;;2.20;2.00;;;;;;;7.37;100.00;95747.59;107026;1277;138962;-88
2023/11/20 09:57:10;;;;;;;31.20;12.10;;;;;;;7.38;100.00;95744.98;107344;1273;27801;-87
2023/11/20 09:59:37;;;;;;;5.90;3.40;;;;;;;7.41;100.00;95743.55;107066;1272;23363;-87
2023/11/20 10:02:03;;;;;;;7.60;3.10;;;;;;;7.42;100.00;95745.86;107140;1275;137786;-87
2023/11/20 10:04:29;;;;;;;45.30;15.60;;;;;;;7.43;100.00;95743.40;107183;1275;22537;-88
2023/11/20 10:06:55;;;;;;;88.60;30.00;;;;;;;7.43;100.00;95740.98;106978;1275;138477;-87
2023/11/20 10:09:25;;;;;;;68.60;24.20;;;;;;;7.42;100.00;95736.40;107269;1272;22538;-88
2023/11/20 10:11:55;;;;;;;231.20;79.70;;;;;;;7.39;100.00;95741.93;107100;1275;138599;-88
2023/11/20 10:14:22;;;;;;;350.20;118.40;;;;;;;7.38;100.00;95742.08;107182;1270;22541;-88
2023/11/20 10:16:51;;;;;;;282.40;93.80;;;;;;;7.39;100.00;95740.09;107203;1270;22749;-88
2023/11/20 10:19:18;;;;;;;215.10;77.80;;;;;;;7.39;100.00;95737.99;110075;1279;139996;-88
2023/11/20 10:21:46;;;;;;;197.70;56.70;;;;;;;7.39;100.00;95736.44;110257;1272;22382;-88
2023/11/20 10:24:13;;;;;;;189.30;56.40;;;;;;;7.39;100.00;95730.78;109329;1276;138669;-87
2023/11/20 10:26:41;;;;;;;136.60;46.40;;;;;;;7.39;100.00;95727.66;107394;1275;23340;-88
2023/11/20 10:29:10;;;;;;;260.70;86.80;;;;;;;7.40;100.00;95728.46;110218;1278;22958;-88
2023/11/20 10:31:43;;;;;;;52.90;18.60;;;;;;;7.41;100.00;95728.63;109316;1278;139576;-87
2023/11/20 10:34:10;;;;;;;46.10;13.00;;;;;;;7.44;100.00;95722.61;107125;1273;25375;-87
2023/11/20 10:36:36;;;;;;;30.30;11.00;;;;;;;7.48;100.00;95718.84;107081;1279;138457;-87
2023/11/20 10:39:03;;;;;;;224.70;58.90;;;;;;;7.51;100.00;95715.58;107412;1274;23296;-87
2023/11/20 10:41:29;;;;;;;43.90;15.20;;;;;;;7.55;100.00;95711.84;107205;1275;22560;-87
2023/11/20 10:43:55;;;;;;;21.20;7.40;;;;;;;7.58;100.00;95707.34;107016;1273;138852;-88
2023/11/20 10:46:23;;;;;;;78.60;28.40;;;;;;;7.62;100.00;95705.15;107220;1278;22538;-87
2023/11/20 10:48:49;;;;;;;24.60;9.00;;;;;;;7.66;100.00;95702.17;106936;1277;138724;-87
2023/11/20 10:51:18;;;;;;;7.20;3.90;;;;;;;7.69;100.00;95704.23;107189;1270;22726;-88
2023/11/20 10:53:50;;;;;;;29.40;10.40;;;;;;;7.68;100.00;95700.45;107237;1275;25491;-88
2023/11/20 10:56:16;;;;;;;;;;;;;;;7.70;100.00;95701.98;107231;1275;25174;-87
2023/11/20 10:58:43;;;;;;;94.80;31.00;;;;;;;7.70;100.00;95700.10;107314;1273;22661;-87
2023/11/20 11:01:09;;;;;;;35.80;12.20;;;;;;;7.69;100.00;95697.11;107123;1278;139122;-87
2023/11/20 11:03:36;;;;;;;30.40;9.30;;;;;;;7.67;100.00;95696.37;107053;1276;23490;-88
2023/11/20 11:06:09;;;;;;;101.80;31.50;;;;;;;7.65;100.00;95695.52;106983;1278;138785;-87
2023/11/20 11:08:36;;;;;;;58.90;19.80;;;;;;;7.65;100.00;95693.48;107115;1274;23510;-87
2023/11/20 11:11:05;;;;;;;20.40;7.70;;;;;;;7.66;100.00;95690.59;107216;1259;24205;-87
2023/11/20 11:13:34;;;;;;;36.40;15.20;;;;;;;7.67;100.00;95688.94;107068;1272;138640;-87